sensor_id;sensor_type;location;lat;lon;timestamp;P1;durP1;ratioP1;P2;durP2;ratioP2
31537;SDS011;18147;51.952;6.146;2022-07-15T00:02:04;8.48;;;2.90;;
31537;SDS011;18147;51.952;6.146;2022-07-15T00:04:30;9.82;;;3.17;;
31537;SDS011;18147;51.952;6.146;2022-07-15T00:06:56;5.13;;;2.50;;
31537;SDS011;18147;51.952;6.146;2022-07-15T00:09:21;13.82;;;3.80;;
31537;SDS011;18147;51.952;6.146;2022-07-15T00:12:08;8.40;;;2.95;;
31537;SDS011;18147;51.952;6.146;2022-07-15T00:14:34;9.27;;;2.92;;
31537;SDS011;18147;51.952;6.146;2022-07-15T00:16:59;7.75;;;2.55;;
31537;SDS011;18147;51.952;6.146;2022-07-15T00:19:25;8.13;;;3.28;;
31537;SDS011;18147;51.952;6.146;2022-07-15T00:21:50;8.43;;;2.40;;
31537;SDS011;18147;51.952;6.146;2022-07-15T00:24:15;11.00;;;3.47;;
31537;SDS011;18147;51.952;6.146;2022-07-15T00:26:41;7.28;;;3.35;;
31537;SDS011;18147;51.952;6.146;2022-07-15T00:29:06;4.07;;;2.20;;
31537;SDS011;18147;51.952;6.146;2022-07-15T00:31:32;9.88;;;2.67;;
31537;SDS011;18147;51.952;6.146;2022-07-15T00:33:58;10.10;;;3.15;;
31537;SDS011;18147;51.952;6.146;2022-07-15T00:36:23;6.78;;;2.30;;
31537;SDS011;18147;51.952;6.146;2022-07-15T00:38:49;8.02;;;2.90;;
31537;SDS011;18147;51.952;6.146;2022-07-15T00:41:15;5.53;;;2.55;;
31537;SDS011;18147;51.952;6.146;2022-07-15T00:43:41;9.70;;;2.63;;
31537;SDS011;18147;51.952;6.146;2022-07-15T00:46:06;7.35;;;2.78;;
31537;SDS011;18147;51.952;6.146;2022-07-15T00:48:32;10.38;;;3.03;;
31537;SDS011;18147;51.952;6.146;2022-07-15T00:50:58;7.15;;;3.13;;
31537;SDS011;18147;51.952;6.146;2022-07-15T00:53:23;7.20;;;2.75;;
31537;SDS011;18147;51.952;6.146;2022-07-15T00:55:56;7.18;;;2.97;;
31537;SDS011;18147;51.952;6.146;2022-07-15T00:58:24;10.27;;;2.72;;
31537;SDS011;18147;51.952;6.146;2022-07-15T01:00:51;18.60;;;2.90;;
31537;SDS011;18147;51.952;6.146;2022-07-15T01:03:18;7.93;;;3.28;;
31537;SDS011;18147;51.952;6.146;2022-07-15T01:05:45;5.68;;;2.88;;
31537;SDS011;18147;51.952;6.146;2022-07-15T01:08:13;7.30;;;2.70;;
31537;SDS011;18147;51.952;6.146;2022-07-15T01:10:40;11.98;;;3.25;;
31537;SDS011;18147;51.952;6.146;2022-07-15T01:13:06;7.00;;;3.00;;
31537;SDS011;18147;51.952;6.146;2022-07-15T01:15:32;12.85;;;3.78;;
31537;SDS011;18147;51.952;6.146;2022-07-15T01:18:00;8.15;;;2.92;;
31537;SDS011;18147;51.952;6.146;2022-07-15T01:20:28;9.13;;;4.13;;
31537;SDS011;18147;51.952;6.146;2022-07-15T01:22:56;8.85;;;3.08;;
31537;SDS011;18147;51.952;6.146;2022-07-15T01:25:27;7.18;;;3.10;;
31537;SDS011;18147;51.952;6.146;2022-07-15T01:27:53;9.50;;;2.85;;
31537;SDS011;18147;51.952;6.146;2022-07-15T01:30:22;14.13;;;3.33;;
31537;SDS011;18147;51.952;6.146;2022-07-15T01:32:48;14.15;;;3.20;;
31537;SDS011;18147;51.952;6.146;2022-07-15T01:35:13;9.68;;;2.97;;
31537;SDS011;18147;51.952;6.146;2022-07-15T01:37:42;9.23;;;3.17;;
31537;SDS011;18147;51.952;6.146;2022-07-15T01:40:09;8.07;;;2.70;;
31537;SDS011;18147;51.952;6.146;2022-07-15T01:42:35;8.57;;;3.13;;
31537;SDS011;18147;51.952;6.146;2022-07-15T01:45:01;10.15;;;2.92;;
31537;SDS011;18147;51.952;6.146;2022-07-15T01:47:28;7.32;;;2.85;;
31537;SDS011;18147;51.952;6.146;2022-07-15T01:49:54;6.07;;;2.53;;
31537;SDS011;18147;51.952;6.146;2022-07-15T01:52:45;12.38;;;3.22;;
31537;SDS011;18147;51.952;6.146;2022-07-15T01:55:11;8.82;;;3.08;;
31537;SDS011;18147;51.952;6.146;2022-07-15T01:57:37;12.02;;;3.17;;
31537;SDS011;18147;51.952;6.146;2022-07-15T02:00:06;8.65;;;2.85;;
31537;SDS011;18147;51.952;6.146;2022-07-15T02:02:46;10.48;;;3.17;;
31537;SDS011;18147;51.952;6.146;2022-07-15T02:05:14;7.80;;;3.28;;
31537;SDS011;18147;51.952;6.146;2022-07-15T02:07:40;8.00;;;3.42;;
31537;SDS011;18147;51.952;6.146;2022-07-15T02:10:08;9.48;;;3.40;;
31537;SDS011;18147;51.952;6.146;2022-07-15T02:12:34;8.63;;;3.17;;
31537;SDS011;18147;51.952;6.146;2022-07-15T02:14:59;10.85;;;3.35;;
31537;SDS011;18147;51.952;6.146;2022-07-15T02:17:34;5.88;;;3.00;;
31537;SDS011;18147;51.952;6.146;2022-07-15T02:19:59;14.65;;;3.40;;
31537;SDS011;18147;51.952;6.146;2022-07-15T02:22:25;15.75;;;3.90;;
31537;SDS011;18147;51.952;6.146;2022-07-15T02:24:50;13.02;;;3.33;;
31537;SDS011;18147;51.952;6.146;2022-07-15T02:27:19;14.93;;;4.00;;
31537;SDS011;18147;51.952;6.146;2022-07-15T02:29:46;12.30;;;3.72;;
31537;SDS011;18147;51.952;6.146;2022-07-15T02:32:13;8.48;;;3.85;;
31537;SDS011;18147;51.952;6.146;2022-07-15T02:34:40;8.05;;;4.20;;
31537;SDS011;18147;51.952;6.146;2022-07-15T02:37:06;8.88;;;4.15;;
31537;SDS011;18147;51.952;6.146;2022-07-15T02:39:32;9.65;;;3.97;;
31537;SDS011;18147;51.952;6.146;2022-07-15T02:41:57;9.80;;;4.15;;
31537;SDS011;18147;51.952;6.146;2022-07-15T02:44:23;20.05;;;5.15;;
31537;SDS011;18147;51.952;6.146;2022-07-15T02:46:49;7.90;;;4.00;;
31537;SDS011;18147;51.952;6.146;2022-07-15T02:49:20;13.60;;;4.50;;
31537;SDS011;18147;51.952;6.146;2022-07-15T02:51:46;16.17;;;4.70;;
31537;SDS011;18147;51.952;6.146;2022-07-15T02:54:12;11.35;;;4.07;;
31537;SDS011;18147;51.952;6.146;2022-07-15T02:56:39;10.63;;;4.75;;
31537;SDS011;18147;51.952;6.146;2022-07-15T02:59:04;7.47;;;3.90;;
31537;SDS011;18147;51.952;6.146;2022-07-15T03:01:30;9.38;;;4.35;;
31537;SDS011;18147;51.952;6.146;2022-07-15T03:03:56;13.07;;;4.68;;
31537;SDS011;18147;51.952;6.146;2022-07-15T03:06:23;7.40;;;3.47;;
31537;SDS011;18147;51.952;6.146;2022-07-15T03:08:48;11.70;;;4.60;;
31537;SDS011;18147;51.952;6.146;2022-07-15T03:11:17;10.45;;;3.80;;
31537;SDS011;18147;51.952;6.146;2022-07-15T03:13:44;13.40;;;4.15;;
31537;SDS011;18147;51.952;6.146;2022-07-15T03:16:09;13.77;;;4.45;;
31537;SDS011;18147;51.952;6.146;2022-07-15T03:18:36;14.32;;;4.60;;
31537;SDS011;18147;51.952;6.146;2022-07-15T03:21:02;8.90;;;3.65;;
31537;SDS011;18147;51.952;6.146;2022-07-15T03:23:29;12.25;;;3.90;;
31537;SDS011;18147;51.952;6.146;2022-07-15T03:25:55;11.90;;;3.80;;
31537;SDS011;18147;51.952;6.146;2022-07-15T03:28:21;10.23;;;4.03;;
31537;SDS011;18147;51.952;6.146;2022-07-15T03:30:47;12.65;;;3.60;;
31537;SDS011;18147;51.952;6.146;2022-07-15T03:33:14;15.95;;;3.42;;
31537;SDS011;18147;51.952;6.146;2022-07-15T03:35:41;11.82;;;3.75;;
31537;SDS011;18147;51.952;6.146;2022-07-15T03:38:08;15.23;;;4.05;;
31537;SDS011;18147;51.952;6.146;2022-07-15T03:40:35;8.75;;;3.40;;
31537;SDS011;18147;51.952;6.146;2022-07-15T03:43:00;5.85;;;3.40;;
31537;SDS011;18147;51.952;6.146;2022-07-15T03:45:27;10.43;;;4.45;;
31537;SDS011;18147;51.952;6.146;2022-07-15T03:47:53;10.85;;;3.30;;
31537;SDS011;18147;51.952;6.146;2022-07-15T03:50:19;11.63;;;4.88;;
31537;SDS011;18147;51.952;6.146;2022-07-15T03:52:45;9.95;;;3.53;;
31537;SDS011;18147;51.952;6.146;2022-07-15T03:55:10;8.68;;;3.95;;
31537;SDS011;18147;51.952;6.146;2022-07-15T03:57:36;6.75;;;3.22;;
31537;SDS011;18147;51.952;6.146;2022-07-15T04:00:03;6.78;;;2.58;;
31537;SDS011;18147;51.952;6.146;2022-07-15T04:02:39;6.07;;;3.42;;
31537;SDS011;18147;51.952;6.146;2022-07-15T04:05:05;8.20;;;3.70;;
31537;SDS011;18147;51.952;6.146;2022-07-15T04:07:31;13.00;;;3.17;;
31537;SDS011;18147;51.952;6.146;2022-07-15T04:09:57;13.77;;;4.15;;
31537;SDS011;18147;51.952;6.146;2022-07-15T04:12:22;15.73;;;3.50;;
31537;SDS011;18147;51.952;6.146;2022-07-15T04:14:48;7.57;;;2.80;;
31537;SDS011;18147;51.952;6.146;2022-07-15T04:17:15;8.80;;;2.80;;
31537;SDS011;18147;51.952;6.146;2022-07-15T04:19:41;6.18;;;2.92;;
31537;SDS011;18147;51.952;6.146;2022-07-15T04:22:06;8.73;;;3.20;;
31537;SDS011;18147;51.952;6.146;2022-07-15T04:24:46;8.50;;;2.35;;
31537;SDS011;18147;51.952;6.146;2022-07-15T04:27:13;6.97;;;2.33;;
31537;SDS011;18147;51.952;6.146;2022-07-15T04:29:39;10.15;;;2.88;;
31537;SDS011;18147;51.952;6.146;2022-07-15T04:32:06;6.03;;;2.15;;
31537;SDS011;18147;51.952;6.146;2022-07-15T04:34:36;11.10;;;2.30;;
31537;SDS011;18147;51.952;6.146;2022-07-15T04:37:01;8.23;;;2.40;;
31537;SDS011;18147;51.952;6.146;2022-07-15T04:39:28;7.82;;;2.17;;
31537;SDS011;18147;51.952;6.146;2022-07-15T04:41:56;9.13;;;2.00;;
31537;SDS011;18147;51.952;6.146;2022-07-15T04:44:21;16.80;;;2.65;;
31537;SDS011;18147;51.952;6.146;2022-07-15T04:46:48;10.70;;;2.47;;
31537;SDS011;18147;51.952;6.146;2022-07-15T04:49:45;10.43;;;2.28;;
31537;SDS011;18147;51.952;6.146;2022-07-15T04:52:32;9.15;;;2.30;;
31537;SDS011;18147;51.952;6.146;2022-07-15T04:54:59;5.63;;;2.05;;
31537;SDS011;18147;51.952;6.146;2022-07-15T04:57:24;9.75;;;2.45;;
31537;SDS011;18147;51.952;6.146;2022-07-15T04:59:50;9.00;;;2.60;;
31537;SDS011;18147;51.952;6.146;2022-07-15T05:02:16;12.23;;;2.33;;
31537;SDS011;18147;51.952;6.146;2022-07-15T05:04:47;8.48;;;2.47;;
31537;SDS011;18147;51.952;6.146;2022-07-15T05:07:13;7.68;;;2.13;;
31537;SDS011;18147;51.952;6.146;2022-07-15T05:09:41;8.73;;;2.90;;
31537;SDS011;18147;51.952;6.146;2022-07-15T05:12:06;6.07;;;2.20;;
31537;SDS011;18147;51.952;6.146;2022-07-15T05:14:42;9.38;;;2.97;;
31537;SDS011;18147;51.952;6.146;2022-07-15T05:17:08;12.23;;;3.60;;
31537;SDS011;18147;51.952;6.146;2022-07-15T05:19:34;6.93;;;2.88;;
31537;SDS011;18147;51.952;6.146;2022-07-15T05:22:00;9.13;;;2.78;;
31537;SDS011;18147;51.952;6.146;2022-07-15T05:24:28;10.45;;;2.67;;
31537;SDS011;18147;51.952;6.146;2022-07-15T05:26:54;10.95;;;3.45;;
31537;SDS011;18147;51.952;6.146;2022-07-15T05:29:19;7.95;;;2.78;;
31537;SDS011;18147;51.952;6.146;2022-07-15T05:31:51;12.60;;;3.10;;
31537;SDS011;18147;51.952;6.146;2022-07-15T05:34:16;10.63;;;3.38;;
31537;SDS011;18147;51.952;6.146;2022-07-15T05:36:42;12.63;;;3.00;;
31537;SDS011;18147;51.952;6.146;2022-07-15T05:39:10;11.38;;;2.90;;
31537;SDS011;18147;51.952;6.146;2022-07-15T05:41:36;13.77;;;2.88;;
31537;SDS011;18147;51.952;6.146;2022-07-15T05:44:04;14.43;;;3.42;;
31537;SDS011;18147;51.952;6.146;2022-07-15T05:46:34;8.70;;;2.75;;
31537;SDS011;18147;51.952;6.146;2022-07-15T05:49:02;8.60;;;2.47;;
31537;SDS011;18147;51.952;6.146;2022-07-15T05:51:28;7.93;;;2.22;;
31537;SDS011;18147;51.952;6.146;2022-07-15T05:53:57;6.93;;;2.08;;
31537;SDS011;18147;51.952;6.146;2022-07-15T05:56:22;8.32;;;1.90;;
31537;SDS011;18147;51.952;6.146;2022-07-15T05:58:48;7.82;;;1.80;;
31537;SDS011;18147;51.952;6.146;2022-07-15T06:01:14;9.02;;;1.90;;
31537;SDS011;18147;51.952;6.146;2022-07-15T06:03:39;7.13;;;1.77;;
31537;SDS011;18147;51.952;6.146;2022-07-15T06:06:05;7.75;;;2.05;;
31537;SDS011;18147;51.952;6.146;2022-07-15T06:08:33;11.70;;;2.63;;
31537;SDS011;18147;51.952;6.146;2022-07-15T06:11:00;7.50;;;1.42;;
31537;SDS011;18147;51.952;6.146;2022-07-15T06:13:26;10.18;;;1.83;;
31537;SDS011;18147;51.952;6.146;2022-07-15T06:15:53;10.73;;;2.13;;
31537;SDS011;18147;51.952;6.146;2022-07-15T06:18:22;5.90;;;1.80;;
31537;SDS011;18147;51.952;6.146;2022-07-15T06:20:57;7.10;;;2.08;;
31537;SDS011;18147;51.952;6.146;2022-07-15T06:23:22;5.28;;;1.60;;
31537;SDS011;18147;51.952;6.146;2022-07-15T06:25:48;4.47;;;1.65;;
31537;SDS011;18147;51.952;6.146;2022-07-15T06:28:14;8.93;;;1.92;;
31537;SDS011;18147;51.952;6.146;2022-07-15T06:30:39;3.70;;;1.40;;
31537;SDS011;18147;51.952;6.146;2022-07-15T06:33:05;6.35;;;1.70;;
31537;SDS011;18147;51.952;6.146;2022-07-15T06:35:30;7.75;;;1.63;;
31537;SDS011;18147;51.952;6.146;2022-07-15T06:37:56;6.85;;;2.00;;
31537;SDS011;18147;51.952;6.146;2022-07-15T06:40:21;8.35;;;1.95;;
31537;SDS011;18147;51.952;6.146;2022-07-15T06:42:50;8.88;;;1.83;;
31537;SDS011;18147;51.952;6.146;2022-07-15T06:45:23;5.47;;;1.75;;
31537;SDS011;18147;51.952;6.146;2022-07-15T06:47:48;3.63;;;1.50;;
31537;SDS011;18147;51.952;6.146;2022-07-15T06:50:14;8.88;;;1.58;;
31537;SDS011;18147;51.952;6.146;2022-07-15T06:52:42;6.38;;;1.42;;
31537;SDS011;18147;51.952;6.146;2022-07-15T06:55:08;5.20;;;1.70;;
31537;SDS011;18147;51.952;6.146;2022-07-15T06:57:36;5.05;;;1.55;;
31537;SDS011;18147;51.952;6.146;2022-07-15T07:00:02;5.95;;;1.42;;
31537;SDS011;18147;51.952;6.146;2022-07-15T07:02:28;5.18;;;1.63;;
31537;SDS011;18147;51.952;6.146;2022-07-15T07:04:56;8.30;;;1.80;;
31537;SDS011;18147;51.952;6.146;2022-07-15T07:07:24;8.07;;;1.58;;
31537;SDS011;18147;51.952;6.146;2022-07-15T07:09:49;3.78;;;1.70;;
31537;SDS011;18147;51.952;6.146;2022-07-15T07:12:15;6.95;;;1.30;;
31537;SDS011;18147;51.952;6.146;2022-07-15T07:14:41;4.72;;;0.93;;
31537;SDS011;18147;51.952;6.146;2022-07-15T07:17:06;4.47;;;1.08;;
31537;SDS011;18147;51.952;6.146;2022-07-15T07:19:32;5.00;;;1.17;;
31537;SDS011;18147;51.952;6.146;2022-07-15T07:21:57;5.90;;;1.40;;
31537;SDS011;18147;51.952;6.146;2022-07-15T07:24:23;6.80;;;0.90;;
31537;SDS011;18147;51.952;6.146;2022-07-15T07:26:48;3.53;;;1.10;;
31537;SDS011;18147;51.952;6.146;2022-07-15T07:29:13;2.60;;;1.00;;
31537;SDS011;18147;51.952;6.146;2022-07-15T07:31:41;4.00;;;0.73;;
31537;SDS011;18147;51.952;6.146;2022-07-15T07:34:06;2.03;;;0.80;;
31537;SDS011;18147;51.952;6.146;2022-07-15T07:36:32;5.95;;;1.10;;
31537;SDS011;18147;51.952;6.146;2022-07-15T07:38:57;7.35;;;1.30;;
31537;SDS011;18147;51.952;6.146;2022-07-15T07:41:23;2.70;;;0.98;;
31537;SDS011;18147;51.952;6.146;2022-07-15T07:43:48;3.67;;;0.70;;
31537;SDS011;18147;51.952;6.146;2022-07-15T07:46:14;1.95;;;0.60;;
31537;SDS011;18147;51.952;6.146;2022-07-15T07:48:42;2.47;;;0.70;;
31537;SDS011;18147;51.952;6.146;2022-07-15T07:51:11;1.40;;;0.55;;
31537;SDS011;18147;51.952;6.146;2022-07-15T07:53:36;3.67;;;0.82;;
31537;SDS011;18147;51.952;6.146;2022-07-15T07:56:02;2.10;;;0.68;;
31537;SDS011;18147;51.952;6.146;2022-07-15T07:58:28;4.82;;;0.85;;
31537;SDS011;18147;51.952;6.146;2022-07-15T08:00:53;3.63;;;0.60;;
31537;SDS011;18147;51.952;6.146;2022-07-15T08:03:25;3.65;;;0.68;;
31537;SDS011;18147;51.952;6.146;2022-07-15T08:05:58;5.55;;;0.93;;
31537;SDS011;18147;51.952;6.146;2022-07-15T08:08:25;4.60;;;0.95;;
31537;SDS011;18147;51.952;6.146;2022-07-15T08:10:52;1.38;;;0.45;;
31537;SDS011;18147;51.952;6.146;2022-07-15T08:13:20;1.02;;;0.50;;
31537;SDS011;18147;51.952;6.146;2022-07-15T08:15:49;2.15;;;0.60;;
31537;SDS011;18147;51.952;6.146;2022-07-15T08:18:18;4.43;;;0.85;;
31537;SDS011;18147;51.952;6.146;2022-07-15T08:20:44;3.95;;;0.95;;
31537;SDS011;18147;51.952;6.146;2022-07-15T08:23:09;0.95;;;0.63;;
31537;SDS011;18147;51.952;6.146;2022-07-15T08:25:36;5.20;;;0.65;;
31537;SDS011;18147;51.952;6.146;2022-07-15T08:28:02;1.90;;;0.70;;
31537;SDS011;18147;51.952;6.146;2022-07-15T08:30:32;1.85;;;0.52;;
31537;SDS011;18147;51.952;6.146;2022-07-15T08:33:01;1.83;;;0.88;;
31537;SDS011;18147;51.952;6.146;2022-07-15T08:35:27;1.92;;;0.50;;
31537;SDS011;18147;51.952;6.146;2022-07-15T08:37:53;1.20;;;0.50;;
31537;SDS011;18147;51.952;6.146;2022-07-15T08:40:25;1.80;;;0.50;;
31537;SDS011;18147;51.952;6.146;2022-07-15T08:42:51;1.42;;;0.40;;
31537;SDS011;18147;51.952;6.146;2022-07-15T08:45:19;1.85;;;0.57;;
31537;SDS011;18147;51.952;6.146;2022-07-15T08:47:48;2.65;;;0.60;;
31537;SDS011;18147;51.952;6.146;2022-07-15T08:50:19;1.25;;;0.40;;
31537;SDS011;18147;51.952;6.146;2022-07-15T08:52:46;1.38;;;0.43;;
31537;SDS011;18147;51.952;6.146;2022-07-15T08:55:12;1.80;;;0.40;;
31537;SDS011;18147;51.952;6.146;2022-07-15T08:57:47;2.78;;;0.60;;
31537;SDS011;18147;51.952;6.146;2022-07-15T09:00:18;0.60;;;0.40;;
31537;SDS011;18147;51.952;6.146;2022-07-15T09:02:47;1.42;;;0.57;;
31537;SDS011;18147;51.952;6.146;2022-07-15T09:05:26;1.08;;;0.50;;
31537;SDS011;18147;51.952;6.146;2022-07-15T09:08:00;0.63;;;0.50;;
31537;SDS011;18147;51.952;6.146;2022-07-15T09:13:08;2.35;;;0.40;;
31537;SDS011;18147;51.952;6.146;2022-07-15T09:15:35;2.53;;;0.43;;
31537;SDS011;18147;51.952;6.146;2022-07-15T09:18:03;4.22;;;0.65;;
31537;SDS011;18147;51.952;6.146;2022-07-15T09:20:36;1.05;;;0.50;;
31537;SDS011;18147;51.952;6.146;2022-07-15T09:23:03;1.30;;;0.57;;
31537;SDS011;18147;51.952;6.146;2022-07-15T09:25:32;3.35;;;0.55;;
31537;SDS011;18147;51.952;6.146;2022-07-15T09:27:59;2.75;;;0.47;;
31537;SDS011;18147;51.952;6.146;2022-07-15T09:30:33;1.10;;;0.40;;
31537;SDS011;18147;51.952;6.146;2022-07-15T09:33:22;2.60;;;0.50;;
31537;SDS011;18147;51.952;6.146;2022-07-15T09:36:10;0.57;;;0.50;;
31537;SDS011;18147;51.952;6.146;2022-07-15T09:44:09;4.65;;;0.77;;
31537;SDS011;18147;51.952;6.146;2022-07-15T09:46:54;1.48;;;0.50;;
31537;SDS011;18147;51.952;6.146;2022-07-15T09:51:56;2.05;;;0.50;;
31537;SDS011;18147;51.952;6.146;2022-07-15T09:54:27;3.05;;;0.55;;
31537;SDS011;18147;51.952;6.146;2022-07-15T09:56:58;2.17;;;0.52;;
31537;SDS011;18147;51.952;6.146;2022-07-15T09:59:25;1.10;;;0.60;;
31537;SDS011;18147;51.952;6.146;2022-07-15T10:01:51;5.82;;;0.90;;
31537;SDS011;18147;51.952;6.146;2022-07-15T10:04:21;0.88;;;0.40;;
31537;SDS011;18147;51.952;6.146;2022-07-15T10:06:48;1.20;;;0.68;;
31537;SDS011;18147;51.952;6.146;2022-07-15T10:09:20;2.47;;;0.77;;
31537;SDS011;18147;51.952;6.146;2022-07-15T10:11:48;2.00;;;0.47;;
31537;SDS011;18147;51.952;6.146;2022-07-15T10:14:30;1.55;;;0.40;;
31537;SDS011;18147;51.952;6.146;2022-07-15T10:20:01;26.42;;;1.42;;
31537;SDS011;18147;51.952;6.146;2022-07-15T10:28:14;7.50;;;1.33;;
31537;SDS011;18147;51.952;6.146;2022-07-15T10:30:45;5.80;;;1.00;;
31537;SDS011;18147;51.952;6.146;2022-07-15T10:33:19;3.63;;;0.85;;
31537;SDS011;18147;51.952;6.146;2022-07-15T10:35:46;7.00;;;1.13;;
31537;SDS011;18147;51.952;6.146;2022-07-15T10:38:20;7.68;;;0.85;;
31537;SDS011;18147;51.952;6.146;2022-07-15T10:43:49;2.58;;;0.98;;
31537;SDS011;18147;51.952;6.146;2022-07-15T10:48:44;2.47;;;0.80;;
31537;SDS011;18147;51.952;6.146;2022-07-15T10:51:11;1.98;;;0.90;;
31537;SDS011;18147;51.952;6.146;2022-07-15T10:53:47;5.82;;;1.40;;
31537;SDS011;18147;51.952;6.146;2022-07-15T10:56:26;6.65;;;1.20;;
31537;SDS011;18147;51.952;6.146;2022-07-15T11:01:34;5.40;;;1.05;;
31537;SDS011;18147;51.952;6.146;2022-07-15T11:12:10;6.35;;;1.40;;
31537;SDS011;18147;51.952;6.146;2022-07-15T11:14:39;1.65;;;0.77;;
31537;SDS011;18147;51.952;6.146;2022-07-15T11:17:13;5.43;;;0.80;;
31537;SDS011;18147;51.952;6.146;2022-07-15T11:19:48;9.68;;;0.95;;
31537;SDS011;18147;51.952;6.146;2022-07-15T11:22:20;4.25;;;0.70;;
31537;SDS011;18147;51.952;6.146;2022-07-15T11:24:47;5.18;;;1.40;;
31537;SDS011;18147;51.952;6.146;2022-07-15T11:27:12;4.65;;;0.90;;
31537;SDS011;18147;51.952;6.146;2022-07-15T11:29:49;8.13;;;1.52;;
31537;SDS011;18147;51.952;6.146;2022-07-15T11:32:20;4.90;;;0.95;;
31537;SDS011;18147;51.952;6.146;2022-07-15T11:34:59;4.78;;;0.95;;
31537;SDS011;18147;51.952;6.146;2022-07-15T11:37:32;1.55;;;0.75;;
31537;SDS011;18147;51.952;6.146;2022-07-15T11:40:15;2.47;;;1.20;;
31537;SDS011;18147;51.952;6.146;2022-07-15T11:43:01;3.83;;;0.80;;
31537;SDS011;18147;51.952;6.146;2022-07-15T11:45:52;1.00;;;0.55;;
31537;SDS011;18147;51.952;6.146;2022-07-15T11:48:21;6.22;;;1.00;;
31537;SDS011;18147;51.952;6.146;2022-07-15T11:50:56;4.55;;;0.95;;
31537;SDS011;18147;51.952;6.146;2022-07-15T11:53:22;3.17;;;0.90;;
31537;SDS011;18147;51.952;6.146;2022-07-15T11:55:55;3.35;;;1.00;;
31537;SDS011;18147;51.952;6.146;2022-07-15T11:58:25;1.95;;;0.70;;
31537;SDS011;18147;51.952;6.146;2022-07-15T12:00:54;2.08;;;0.70;;
31537;SDS011;18147;51.952;6.146;2022-07-15T12:03:20;6.47;;;1.25;;
31537;SDS011;18147;51.952;6.146;2022-07-15T12:05:58;6.13;;;0.93;;
31537;SDS011;18147;51.952;6.146;2022-07-15T12:11:14;4.63;;;0.88;;
31537;SDS011;18147;51.952;6.146;2022-07-15T12:13:46;2.35;;;0.95;;
31537;SDS011;18147;51.952;6.146;2022-07-15T12:16:14;7.25;;;1.45;;
31537;SDS011;18147;51.952;6.146;2022-07-15T12:18:44;5.35;;;1.00;;
31537;SDS011;18147;51.952;6.146;2022-07-15T12:21:10;3.10;;;0.75;;
31537;SDS011;18147;51.952;6.146;2022-07-15T12:23:36;3.58;;;0.73;;
31537;SDS011;18147;51.952;6.146;2022-07-15T12:26:06;10.82;;;1.10;;
31537;SDS011;18147;51.952;6.146;2022-07-15T12:28:33;6.97;;;1.00;;
31537;SDS011;18147;51.952;6.146;2022-07-15T12:31:02;1.63;;;0.70;;
31537;SDS011;18147;51.952;6.146;2022-07-15T12:33:32;11.25;;;1.73;;
31537;SDS011;18147;51.952;6.146;2022-07-15T12:38:46;1.95;;;0.80;;
31537;SDS011;18147;51.952;6.146;2022-07-15T12:41:37;5.28;;;1.10;;
31537;SDS011;18147;51.952;6.146;2022-07-15T12:44:05;2.22;;;0.85;;
31537;SDS011;18147;51.952;6.146;2022-07-15T12:52:25;3.80;;;0.75;;
31537;SDS011;18147;51.952;6.146;2022-07-15T12:55:00;3.97;;;1.00;;
31537;SDS011;18147;51.952;6.146;2022-07-15T12:57:45;1.73;;;0.90;;
31537;SDS011;18147;51.952;6.146;2022-07-15T13:00:18;4.55;;;0.98;;
31537;SDS011;18147;51.952;6.146;2022-07-15T13:02:54;4.03;;;0.98;;
31537;SDS011;18147;51.952;6.146;2022-07-15T13:05:19;4.53;;;0.80;;
31537;SDS011;18147;51.952;6.146;2022-07-15T13:07:48;3.55;;;0.93;;
31537;SDS011;18147;51.952;6.146;2022-07-15T13:10:13;2.08;;;0.88;;
31537;SDS011;18147;51.952;6.146;2022-07-15T13:12:39;2.60;;;0.65;;
31537;SDS011;18147;51.952;6.146;2022-07-15T13:15:04;4.18;;;1.02;;
31537;SDS011;18147;51.952;6.146;2022-07-15T13:17:30;1.77;;;0.73;;
31537;SDS011;18147;51.952;6.146;2022-07-15T13:19:56;3.45;;;0.70;;
31537;SDS011;18147;51.952;6.146;2022-07-15T13:22:24;3.33;;;0.63;;
31537;SDS011;18147;51.952;6.146;2022-07-15T13:24:54;3.15;;;0.90;;
31537;SDS011;18147;51.952;6.146;2022-07-15T13:27:19;6.30;;;0.63;;
31537;SDS011;18147;51.952;6.146;2022-07-15T13:29:45;3.90;;;1.08;;
31537;SDS011;18147;51.952;6.146;2022-07-15T13:32:10;5.47;;;1.10;;
31537;SDS011;18147;51.952;6.146;2022-07-15T13:34:36;5.22;;;1.38;;
31537;SDS011;18147;51.952;6.146;2022-07-15T13:37:01;8.18;;;1.00;;
31537;SDS011;18147;51.952;6.146;2022-07-15T13:39:27;5.00;;;1.00;;
31537;SDS011;18147;51.952;6.146;2022-07-15T13:41:52;4.03;;;1.05;;
31537;SDS011;18147;51.952;6.146;2022-07-15T13:44:18;4.93;;;1.05;;
31537;SDS011;18147;51.952;6.146;2022-07-15T13:46:51;3.53;;;0.90;;
31537;SDS011;18147;51.952;6.146;2022-07-15T13:49:19;6.03;;;1.15;;
31537;SDS011;18147;51.952;6.146;2022-07-15T13:52:05;4.97;;;0.73;;
31537;SDS011;18147;51.952;6.146;2022-07-15T13:54:30;3.75;;;0.88;;
31537;SDS011;18147;51.952;6.146;2022-07-15T13:56:55;2.65;;;1.00;;
31537;SDS011;18147;51.952;6.146;2022-07-15T13:59:21;3.92;;;0.90;;
31537;SDS011;18147;51.952;6.146;2022-07-15T14:01:49;0.88;;;0.60;;
31537;SDS011;18147;51.952;6.146;2022-07-15T14:04:20;5.40;;;0.90;;
31537;SDS011;18147;51.952;6.146;2022-07-15T14:06:46;2.95;;;0.68;;
31537;SDS011;18147;51.952;6.146;2022-07-15T14:09:11;1.67;;;0.63;;
31537;SDS011;18147;51.952;6.146;2022-07-15T14:11:37;3.47;;;0.90;;
31537;SDS011;18147;51.952;6.146;2022-07-15T14:14:02;2.15;;;0.60;;
31537;SDS011;18147;51.952;6.146;2022-07-15T14:16:31;2.80;;;0.65;;
31537;SDS011;18147;51.952;6.146;2022-07-15T14:18:56;2.30;;;0.70;;
31537;SDS011;18147;51.952;6.146;2022-07-15T14:21:22;3.67;;;1.10;;
31537;SDS011;18147;51.952;6.146;2022-07-15T14:23:47;2.78;;;0.80;;
31537;SDS011;18147;51.952;6.146;2022-07-15T14:26:16;1.10;;;0.77;;
31537;SDS011;18147;51.952;6.146;2022-07-15T14:28:41;2.25;;;0.80;;
31537;SDS011;18147;51.952;6.146;2022-07-15T14:31:08;3.42;;;0.80;;
31537;SDS011;18147;51.952;6.146;2022-07-15T14:33:38;3.78;;;0.93;;
31537;SDS011;18147;51.952;6.146;2022-07-15T14:36:05;9.82;;;1.23;;
31537;SDS011;18147;51.952;6.146;2022-07-15T14:38:31;4.07;;;0.82;;
31537;SDS011;18147;51.952;6.146;2022-07-15T14:40:57;4.57;;;0.90;;
31537;SDS011;18147;51.952;6.146;2022-07-15T14:43:23;3.00;;;1.00;;
31537;SDS011;18147;51.952;6.146;2022-07-15T14:45:54;3.38;;;0.88;;
31537;SDS011;18147;51.952;6.146;2022-07-15T14:48:20;5.72;;;1.00;;
31537;SDS011;18147;51.952;6.146;2022-07-15T14:50:45;3.17;;;0.90;;
31537;SDS011;18147;51.952;6.146;2022-07-15T14:53:11;3.95;;;0.88;;
31537;SDS011;18147;51.952;6.146;2022-07-15T14:55:37;3.38;;;1.02;;
31537;SDS011;18147;51.952;6.146;2022-07-15T14:58:05;1.70;;;0.77;;
31537;SDS011;18147;51.952;6.146;2022-07-15T15:00:31;1.63;;;0.82;;
31537;SDS011;18147;51.952;6.146;2022-07-15T15:02:57;2.22;;;1.02;;
31537;SDS011;18147;51.952;6.146;2022-07-15T15:05:22;6.25;;;1.27;;
31537;SDS011;18147;51.952;6.146;2022-07-15T15:07:48;1.17;;;0.80;;
31537;SDS011;18147;51.952;6.146;2022-07-15T15:10:14;0.75;;;0.60;;
31537;SDS011;18147;51.952;6.146;2022-07-15T15:12:39;1.45;;;1.15;;
31537;SDS011;18147;51.952;6.146;2022-07-15T15:15:05;4.40;;;1.00;;
31537;SDS011;18147;51.952;6.146;2022-07-15T15:17:31;1.00;;;0.77;;
31537;SDS011;18147;51.952;6.146;2022-07-15T15:19:57;3.65;;;1.10;;
31537;SDS011;18147;51.952;6.146;2022-07-15T15:22:22;1.08;;;0.68;;
31537;SDS011;18147;51.952;6.146;2022-07-15T15:24:48;2.53;;;0.93;;
31537;SDS011;18147;51.952;6.146;2022-07-15T15:27:13;3.78;;;1.20;;
31537;SDS011;18147;51.952;6.146;2022-07-15T15:29:40;2.33;;;0.80;;
31537;SDS011;18147;51.952;6.146;2022-07-15T15:32:06;1.88;;;0.80;;
31537;SDS011;18147;51.952;6.146;2022-07-15T15:34:38;3.60;;;0.90;;
31537;SDS011;18147;51.952;6.146;2022-07-15T15:37:04;1.73;;;0.90;;
31537;SDS011;18147;51.952;6.146;2022-07-15T15:39:30;1.70;;;0.88;;